sensor_id;sensor_type;location;lat;lon;timestamp;noise_LAeq;noise_LA_min;noise_LA_max;noise_LA01;noise_LA95
66888;Laerm;67239;51.680;5.976;2023-05-01T00:00:57;34.49;31.44;42.35;;
66888;Laerm;67239;51.680;5.976;2023-05-01T00:03:26;33.54;31.00;40.08;;
66888;Laerm;67239;51.680;5.976;2023-05-01T00:06:00;33.06;31.00;36.22;;
66888;Laerm;67239;51.680;5.976;2023-05-01T00:08:27;33.72;30.55;42.83;;
66888;Laerm;67239;51.680;5.976;2023-05-01T00:10:54;33.89;31.13;40.49;;
66888;Laerm;67239;51.680;5.976;2023-05-01T00:13:22;33.35;30.80;36.54;;
66888;Laerm;67239;51.680;5.976;2023-05-01T00:15:50;34.20;30.78;40.97;;
66888;Laerm;67239;51.680;5.976;2023-05-01T00:18:18;33.20;30.65;44.81;;
66888;Laerm;67239;51.680;5.976;2023-05-01T00:20:45;33.85;31.10;37.96;;
66888;Laerm;67239;51.680;5.976;2023-05-01T00:23:12;33.07;30.88;36.36;;
66888;Laerm;67239;51.680;5.976;2023-05-01T00:25:39;32.72;30.52;36.84;;
66888;Laerm;67239;51.680;5.976;2023-05-01T00:28:06;32.78;30.49;38.40;;
66888;Laerm;67239;51.680;5.976;2023-05-01T00:30:34;58.40;31.94;76.87;;
66888;Laerm;67239;51.680;5.976;2023-05-01T00:33:01;34.36;31.42;40.82;;
66888;Laerm;67239;51.680;5.976;2023-05-01T00:35:29;33.48;31.16;35.75;;
66888;Laerm;67239;51.680;5.976;2023-05-01T00:37:56;39.35;30.85;61.70;;
66888;Laerm;67239;51.680;5.976;2023-05-01T00:40:24;43.40;30.72;63.97;;
66888;Laerm;67239;51.680;5.976;2023-05-01T00:42:51;42.80;30.79;65.95;;
66888;Laerm;67239;51.680;5.976;2023-05-01T00:45:18;32.42;30.27;35.27;;
66888;Laerm;67239;51.680;5.976;2023-05-01T00:47:45;37.11;29.86;62.85;;
66888;Laerm;67239;51.680;5.976;2023-05-01T00:50:13;32.70;30.57;40.08;;
66888;Laerm;67239;51.680;5.976;2023-05-01T00:52:41;44.22;30.52;66.85;;
66888;Laerm;67239;51.680;5.976;2023-05-01T00:55:08;42.92;31.08;61.19;;
66888;Laerm;67239;51.680;5.976;2023-05-01T00:57:35;42.50;30.60;64.06;;
66888;Laerm;67239;51.680;5.976;2023-05-01T01:00:03;57.36;30.47;75.77;;
66888;Laerm;67239;51.680;5.976;2023-05-01T01:02:31;40.23;30.38;62.78;;
66888;Laerm;67239;51.680;5.976;2023-05-01T01:04:58;37.31;30.55;60.77;;
66888;Laerm;67239;51.680;5.976;2023-05-01T01:07:52;33.32;30.98;38.56;;
66888;Laerm;67239;51.680;5.976;2023-05-01T01:10:38;33.60;31.24;39.69;;
66888;Laerm;67239;51.680;5.976;2023-05-01T01:13:15;41.15;31.17;64.53;;
66888;Laerm;67239;51.680;5.976;2023-05-01T01:15:52;33.81;31.50;41.59;;
66888;Laerm;67239;51.680;5.976;2023-05-01T01:27:22;34.09;31.01;39.65;;
66888;Laerm;67239;51.680;5.976;2023-05-01T01:36:40;32.45;29.85;34.49;;
66888;Laerm;67239;51.680;5.976;2023-05-01T01:39:20;42.16;30.97;64.89;;
66888;Laerm;67239;51.680;5.976;2023-05-01T01:41:52;61.31;31.40;83.15;;
66888;Laerm;67239;51.680;5.976;2023-05-01T01:44:29;60.05;31.93;77.24;;
66888;Laerm;67239;51.680;5.976;2023-05-01T01:47:04;44.24;31.48;66.21;;
66888;Laerm;67239;51.680;5.976;2023-05-01T01:49:37;43.45;31.57;62.62;;
66888;Laerm;67239;51.680;5.976;2023-05-01T01:52:07;44.16;31.12;64.84;;
66888;Laerm;67239;51.680;5.976;2023-05-01T01:54:44;43.88;30.51;64.86;;
66888;Laerm;67239;51.680;5.976;2023-05-01T01:57:17;45.28;31.51;66.05;;
66888;Laerm;67239;51.680;5.976;2023-05-01T01:59:47;58.53;31.30;75.10;;
66888;Laerm;67239;51.680;5.976;2023-05-01T02:02:19;60.51;31.02;78.77;;
66888;Laerm;67239;51.680;5.976;2023-05-01T02:04:51;45.15;31.09;65.48;;
66888;Laerm;67239;51.680;5.976;2023-05-01T02:07:21;59.27;31.80;77.72;;
66888;Laerm;67239;51.680;5.976;2023-05-01T02:09:52;57.80;33.55;75.80;;
66888;Laerm;67239;51.680;5.976;2023-05-01T02:12:23;57.79;33.53;78.18;;
66888;Laerm;67239;51.680;5.976;2023-05-01T02:14:53;45.16;32.37;63.60;;
66888;Laerm;67239;51.680;5.976;2023-05-01T02:17:20;46.51;32.40;65.95;;
66888;Laerm;67239;51.680;5.976;2023-05-01T02:19:50;45.00;32.69;66.09;;
66888;Laerm;67239;51.680;5.976;2023-05-01T02:22:20;45.63;33.78;67.63;;
66888;Laerm;67239;51.680;5.976;2023-05-01T02:24:48;46.59;32.90;66.98;;
66888;Laerm;67239;51.680;5.976;2023-05-01T02:27:20;45.30;33.24;64.82;;
66888;Laerm;67239;51.680;5.976;2023-05-01T02:29:51;45.93;33.05;64.72;;
66888;Laerm;67239;51.680;5.976;2023-05-01T02:32:19;45.16;32.49;65.82;;
66888;Laerm;67239;51.680;5.976;2023-05-01T02:34:47;45.83;32.87;66.68;;
66888;Laerm;67239;51.680;5.976;2023-05-01T02:37:15;42.52;34.37;64.32;;
66888;Laerm;67239;51.680;5.976;2023-05-01T02:39:44;45.30;33.89;64.14;;
66888;Laerm;67239;51.680;5.976;2023-05-01T02:42:14;45.56;34.80;62.56;;
66888;Laerm;67239;51.680;5.976;2023-05-01T02:44:50;43.51;34.07;63.69;;
66888;Laerm;67239;51.680;5.976;2023-05-01T02:47:22;46.39;33.67;66.40;;
66888;Laerm;67239;51.680;5.976;2023-05-01T02:49:50;59.01;34.08;76.63;;
66888;Laerm;67239;51.680;5.976;2023-05-01T02:52:20;38.80;34.24;48.52;;
66888;Laerm;67239;51.680;5.976;2023-05-01T02:54:55;56.58;35.27;74.82;;
66888;Laerm;67239;51.680;5.976;2023-05-01T02:57:23;56.81;36.32;74.46;;
66888;Laerm;67239;51.680;5.976;2023-05-01T02:59:50;48.43;35.28;66.26;;
66888;Laerm;67239;51.680;5.976;2023-05-01T03:02:17;63.01;36.31;82.97;;
66888;Laerm;67239;51.680;5.976;2023-05-01T03:04:44;57.15;37.70;74.78;;
66888;Laerm;67239;51.680;5.976;2023-05-01T03:07:11;61.25;39.17;76.15;;
66888;Laerm;67239;51.680;5.976;2023-05-01T03:09:39;51.53;38.56;67.80;;
66888;Laerm;67239;51.680;5.976;2023-05-01T03:12:06;56.56;38.93;75.01;;
66888;Laerm;67239;51.680;5.976;2023-05-01T03:14:33;59.74;38.41;76.22;;
66888;Laerm;67239;51.680;5.976;2023-05-01T03:17:00;64.60;40.61;78.04;;
66888;Laerm;67239;51.680;5.976;2023-05-01T03:19:27;59.16;40.50;75.30;;
66888;Laerm;67239;51.680;5.976;2023-05-01T03:21:54;60.15;42.49;76.03;;
66888;Laerm;67239;51.680;5.976;2023-05-01T03:24:23;65.92;41.89;84.78;;
66888;Laerm;67239;51.680;5.976;2023-05-01T03:26:50;55.58;40.78;70.98;;
66888;Laerm;67239;51.680;5.976;2023-05-01T03:29:17;58.58;40.21;75.67;;
66888;Laerm;67239;51.680;5.976;2023-05-01T03:31:44;59.58;40.98;78.54;;
66888;Laerm;67239;51.680;5.976;2023-05-01T03:34:11;65.28;43.15;79.81;;
66888;Laerm;67239;51.680;5.976;2023-05-01T03:36:38;66.27;42.80;83.01;;
66888;Laerm;67239;51.680;5.976;2023-05-01T03:39:05;59.08;42.18;74.08;;
66888;Laerm;67239;51.680;5.976;2023-05-01T03:41:52;65.23;42.33;79.50;;
66888;Laerm;67239;51.680;5.976;2023-05-01T03:44:25;67.59;40.97;86.38;;
66888;Laerm;67239;51.680;5.976;2023-05-01T03:46:52;59.36;42.07;73.71;;
66888;Laerm;67239;51.680;5.976;2023-05-01T03:49:24;59.97;41.42;78.81;;
66888;Laerm;67239;51.680;5.976;2023-05-01T03:51:51;63.91;44.72;79.25;;
66888;Laerm;67239;51.680;5.976;2023-05-01T03:54:18;66.23;42.21;81.03;;
66888;Laerm;67239;51.680;5.976;2023-05-01T03:56:56;60.42;40.79;76.81;;
66888;Laerm;67239;51.680;5.976;2023-05-01T03:59:24;66.04;41.32;84.01;;
66888;Laerm;67239;51.680;5.976;2023-05-01T04:01:51;55.38;43.50;70.89;;
66888;Laerm;67239;51.680;5.976;2023-05-01T04:04:19;69.62;47.26;83.94;;
66888;Laerm;67239;51.680;5.976;2023-05-01T04:06:54;66.14;43.48;79.58;;
66888;Laerm;67239;51.680;5.976;2023-05-01T04:09:21;64.40;43.22;78.54;;
66888;Laerm;67239;51.680;5.976;2023-05-01T04:11:48;66.56;43.86;80.80;;
66888;Laerm;67239;51.680;5.976;2023-05-01T04:14:15;65.77;43.81;81.76;;
66888;Laerm;67239;51.680;5.976;2023-05-01T04:16:42;67.58;44.61;83.29;;
66888;Laerm;67239;51.680;5.976;2023-05-01T04:19:09;63.15;43.44;82.29;;
66888;Laerm;67239;51.680;5.976;2023-05-01T04:21:41;63.79;44.27;78.62;;
66888;Laerm;67239;51.680;5.976;2023-05-01T04:24:08;64.11;43.47;78.93;;
66888;Laerm;67239;51.680;5.976;2023-05-01T04:26:35;59.18;44.23;74.52;;
66888;Laerm;67239;51.680;5.976;2023-05-01T04:29:02;66.03;44.91;80.39;;
66888;Laerm;67239;51.680;5.976;2023-05-01T04:31:31;62.82;44.32;79.26;;
66888;Laerm;67239;51.680;5.976;2023-05-01T04:33:58;68.48;44.65;80.87;;
66888;Laerm;67239;51.680;5.976;2023-05-01T04:36:25;60.89;46.56;75.68;;
66888;Laerm;67239;51.680;5.976;2023-05-01T04:38:52;62.48;44.63;75.52;;
66888;Laerm;67239;51.680;5.976;2023-05-01T04:41:19;66.08;44.26;80.03;;
66888;Laerm;67239;51.680;5.976;2023-05-01T04:43:47;66.38;43.73;77.90;;
66888;Laerm;67239;51.680;5.976;2023-05-01T04:46:17;66.22;45.73;78.83;;
66888;Laerm;67239;51.680;5.976;2023-05-01T04:48:44;64.61;44.56;79.39;;
66888;Laerm;67239;51.680;5.976;2023-05-01T04:51:11;63.67;43.53;77.08;;
66888;Laerm;67239;51.680;5.976;2023-05-01T04:53:38;68.15;45.01;80.32;;
66888;Laerm;67239;51.680;5.976;2023-05-01T04:56:15;69.73;46.30;81.87;;
66888;Laerm;67239;51.680;5.976;2023-05-01T04:58:43;68.77;47.28;81.20;;
66888;Laerm;67239;51.680;5.976;2023-05-01T05:01:14;67.73;45.91;81.59;;
66888;Laerm;67239;51.680;5.976;2023-05-01T05:03:42;68.41;44.58;83.50;;
66888;Laerm;67239;51.680;5.976;2023-05-01T05:06:11;68.59;46.91;81.93;;
66888;Laerm;67239;51.680;5.976;2023-05-01T05:08:38;68.28;48.67;80.45;;
66888;Laerm;67239;51.680;5.976;2023-05-01T05:11:09;67.92;46.54;83.19;;
66888;Laerm;67239;51.680;5.976;2023-05-01T05:14:01;65.19;45.45;78.86;;
66888;Laerm;67239;51.680;5.976;2023-05-01T05:16:29;70.26;47.06;84.64;;
66888;Laerm;67239;51.680;5.976;2023-05-01T05:18:57;69.39;49.42;80.18;;
66888;Laerm;67239;51.680;5.976;2023-05-01T05:21:26;67.81;45.51;81.18;;
66888;Laerm;67239;51.680;5.976;2023-05-01T05:23:56;68.34;45.85;85.76;;
66888;Laerm;67239;51.680;5.976;2023-05-01T05:26:23;68.30;46.12;79.44;;
66888;Laerm;67239;51.680;5.976;2023-05-01T05:28:55;65.93;44.33;79.38;;
66888;Laerm;67239;51.680;5.976;2023-05-01T05:31:22;67.38;47.43;79.81;;
66888;Laerm;67239;51.680;5.976;2023-05-01T05:33:49;69.26;46.59;84.44;;
66888;Laerm;67239;51.680;5.976;2023-05-01T05:36:17;68.90;45.98;80.57;;
66888;Laerm;67239;51.680;5.976;2023-05-01T05:38:44;63.71;44.47;80.80;;
66888;Laerm;67239;51.680;5.976;2023-05-01T05:41:15;69.06;46.48;84.67;;
66888;Laerm;67239;51.680;5.976;2023-05-01T05:43:43;68.75;46.53;82.29;;
66888;Laerm;67239;51.680;5.976;2023-05-01T05:46:11;67.95;46.43;78.12;;
66888;Laerm;67239;51.680;5.976;2023-05-01T05:48:40;65.37;43.65;78.54;;
66888;Laerm;67239;51.680;5.976;2023-05-01T05:51:07;64.57;45.87;81.06;;
66888;Laerm;67239;51.680;5.976;2023-05-01T05:53:34;68.60;46.33;79.39;;
66888;Laerm;67239;51.680;5.976;2023-05-01T05:56:01;65.41;45.89;80.65;;
66888;Laerm;67239;51.680;5.976;2023-05-01T05:58:30;66.83;45.80;78.39;;
66888;Laerm;67239;51.680;5.976;2023-05-01T06:00:57;70.56;48.27;82.17;;
66888;Laerm;67239;51.680;5.976;2023-05-01T06:03:24;69.02;45.27;82.57;;
66888;Laerm;67239;51.680;5.976;2023-05-01T06:05:56;67.04;46.62;79.49;;
66888;Laerm;67239;51.680;5.976;2023-05-01T06:08:24;68.06;46.15;81.23;;
66888;Laerm;67239;51.680;5.976;2023-05-01T06:10:51;65.22;44.04;81.42;;
66888;Laerm;67239;51.680;5.976;2023-05-01T06:13:18;67.33;45.83;81.87;;
66888;Laerm;67239;51.680;5.976;2023-05-01T06:15:47;71.69;52.30;83.91;;
66888;Laerm;67239;51.680;5.976;2023-05-01T06:18:15;69.79;47.50;83.72;;
66888;Laerm;67239;51.680;5.976;2023-05-01T06:20:43;66.59;43.43;79.28;;
66888;Laerm;67239;51.680;5.976;2023-05-01T06:23:10;69.00;47.03;81.55;;
66888;Laerm;67239;51.680;5.976;2023-05-01T06:25:58;69.99;50.03;80.93;;
66888;Laerm;67239;51.680;5.976;2023-05-01T06:28:26;65.51;43.46;79.52;;
66888;Laerm;67239;51.680;5.976;2023-05-01T06:30:53;69.12;45.34;83.61;;
66888;Laerm;67239;51.680;5.976;2023-05-01T06:33:22;66.90;46.15;78.53;;
66888;Laerm;67239;51.680;5.976;2023-05-01T06:36:00;68.42;47.53;82.51;;
66888;Laerm;67239;51.680;5.976;2023-05-01T06:38:28;65.10;45.00;78.66;;
66888;Laerm;67239;51.680;5.976;2023-05-01T06:40:55;71.26;52.91;84.40;;
66888;Laerm;67239;51.680;5.976;2023-05-01T06:43:22;69.10;44.50;82.39;;
66888;Laerm;67239;51.680;5.976;2023-05-01T06:45:52;68.48;45.44;81.22;;
66888;Laerm;67239;51.680;5.976;2023-05-01T06:48:19;66.40;45.42;79.31;;
66888;Laerm;67239;51.680;5.976;2023-05-01T06:50:46;64.05;45.27;79.70;;
66888;Laerm;67239;51.680;5.976;2023-05-01T06:53:13;67.25;46.86;79.03;;
66888;Laerm;67239;51.680;5.976;2023-05-01T06:55:40;68.80;44.89;83.38;;
66888;Laerm;67239;51.680;5.976;2023-05-01T06:58:07;69.40;45.80;81.06;;
66888;Laerm;67239;51.680;5.976;2023-05-01T07:00:49;68.71;44.85;84.36;;
66888;Laerm;67239;51.680;5.976;2023-05-01T07:03:17;68.79;47.55;82.06;;
66888;Laerm;67239;51.680;5.976;2023-05-01T07:05:44;63.60;41.79;78.45;;
66888;Laerm;67239;51.680;5.976;2023-05-01T07:08:11;68.82;42.58;81.87;;
66888;Laerm;67239;51.680;5.976;2023-05-01T07:10:38;66.41;42.29;77.81;;
66888;Laerm;67239;51.680;5.976;2023-05-01T07:13:08;69.19;43.45;84.59;;
66888;Laerm;67239;51.680;5.976;2023-05-01T07:15:35;70.28;45.76;82.18;;
66888;Laerm;67239;51.680;5.976;2023-05-01T07:18:03;66.35;46.77;80.27;;
66888;Laerm;67239;51.680;5.976;2023-05-01T07:20:34;70.23;48.11;82.68;;
66888;Laerm;67239;51.680;5.976;2023-05-01T07:23:01;70.32;45.49;83.52;;
66888;Laerm;67239;51.680;5.976;2023-05-01T07:25:29;68.13;49.36;79.99;;
66888;Laerm;67239;51.680;5.976;2023-05-01T07:27:57;66.22;44.29;79.20;;
66888;Laerm;67239;51.680;5.976;2023-05-01T07:30:26;68.31;43.61;80.26;;
66888;Laerm;67239;51.680;5.976;2023-05-01T07:32:56;67.73;42.52;81.79;;
66888;Laerm;67239;51.680;5.976;2023-05-01T07:35:24;67.46;41.74;82.12;;
66888;Laerm;67239;51.680;5.976;2023-05-01T07:37:51;68.31;41.46;80.12;;
66888;Laerm;67239;51.680;5.976;2023-05-01T07:40:18;69.81;46.38;79.11;;
66888;Laerm;67239;51.680;5.976;2023-05-01T07:42:45;65.58;41.64;82.12;;
66888;Laerm;67239;51.680;5.976;2023-05-01T07:45:12;68.17;43.36;82.08;;
66888;Laerm;67239;51.680;5.976;2023-05-01T07:47:39;63.46;41.13;78.49;;
66888;Laerm;67239;51.680;5.976;2023-05-01T07:50:11;70.77;42.03;85.46;;
66888;Laerm;67239;51.680;5.976;2023-05-01T07:52:38;66.13;42.23;81.96;;
66888;Laerm;67239;51.680;5.976;2023-05-01T07:55:06;68.13;43.65;81.77;;
66888;Laerm;67239;51.680;5.976;2023-05-01T07:57:34;66.52;44.10;78.28;;
66888;Laerm;67239;51.680;5.976;2023-05-01T08:00:02;69.00;38.46;83.20;;
66888;Laerm;67239;51.680;5.976;2023-05-01T08:02:39;69.01;45.21;85.41;;
66888;Laerm;67239;51.680;5.976;2023-05-01T08:05:07;69.31;49.43;82.77;;
66888;Laerm;67239;51.680;5.976;2023-05-01T08:07:34;69.42;46.95;81.65;;
66888;Laerm;67239;51.680;5.976;2023-05-01T08:10:02;67.07;44.26;79.26;;
66888;Laerm;67239;51.680;5.976;2023-05-01T08:12:29;67.76;46.67;81.51;;
66888;Laerm;67239;51.680;5.976;2023-05-01T08:14:57;69.02;45.90;80.00;;
66888;Laerm;67239;51.680;5.976;2023-05-01T08:17:24;68.48;46.25;84.33;;
66888;Laerm;67239;51.680;5.976;2023-05-01T08:19:51;67.97;43.20;80.99;;
66888;Laerm;67239;51.680;5.976;2023-05-01T08:22:22;67.03;41.00;81.33;;
66888;Laerm;67239;51.680;5.976;2023-05-01T08:24:50;68.09;44.32;82.27;;
66888;Laerm;67239;51.680;5.976;2023-05-01T08:27:17;67.23;43.50;82.35;;
66888;Laerm;67239;51.680;5.976;2023-05-01T08:29:44;69.12;45.32;83.52;;
66888;Laerm;67239;51.680;5.976;2023-05-01T08:32:11;69.46;50.30;82.65;;
66888;Laerm;67239;51.680;5.976;2023-05-01T08:34:38;68.47;44.41;82.71;;
66888;Laerm;67239;51.680;5.976;2023-05-01T08:37:05;69.22;48.93;81.70;;
66888;Laerm;67239;51.680;5.976;2023-05-01T08:39:32;63.98;43.24;78.92;;
66888;Laerm;67239;51.680;5.976;2023-05-01T08:41:59;68.16;44.70;79.33;;
66888;Laerm;67239;51.680;5.976;2023-05-01T08:44:27;66.67;42.68;79.83;;
66888;Laerm;67239;51.680;5.976;2023-05-01T08:47:16;70.94;47.82;86.91;;
66888;Laerm;67239;51.680;5.976;2023-05-01T08:49:44;66.73;44.37;79.61;;
66888;Laerm;67239;51.680;5.976;2023-05-01T08:52:14;63.98;42.28;82.26;;
66888;Laerm;67239;51.680;5.976;2023-05-01T08:54:43;66.87;45.28;77.32;;
66888;Laerm;67239;51.680;5.976;2023-05-01T08:57:11;67.63;42.32;82.06;;
66888;Laerm;67239;51.680;5.976;2023-05-01T08:59:39;66.89;43.17;79.44;;
66888;Laerm;67239;51.680;5.976;2023-05-01T09:02:08;66.36;43.59;80.16;;
66888;Laerm;67239;51.680;5.976;2023-05-01T09:04:39;69.45;46.11;84.74;;
66888;Laerm;67239;51.680;5.976;2023-05-01T09:07:07;66.17;42.77;80.11;;
66888;Laerm;67239;51.680;5.976;2023-05-01T09:09:35;68.07;42.78;82.34;;
66888;Laerm;67239;51.680;5.976;2023-05-01T09:12:25;65.04;43.64;80.64;;
66888;Laerm;67239;51.680;5.976;2023-05-01T09:14:55;68.14;45.56;79.12;;
66888;Laerm;67239;51.680;5.976;2023-05-01T09:17:23;67.64;47.25;81.79;;
66888;Laerm;67239;51.680;5.976;2023-05-01T09:19:51;66.96;43.04;82.27;;
66888;Laerm;67239;51.680;5.976;2023-05-01T09:22:19;66.33;45.82;79.46;;
66888;Laerm;67239;51.680;5.976;2023-05-01T09:24:47;68.74;49.47;81.34;;
66888;Laerm;67239;51.680;5.976;2023-05-01T09:27:15;66.46;45.48;79.98;;
66888;Laerm;67239;51.680;5.976;2023-05-01T09:29:45;68.89;47.93;80.26;;
66888;Laerm;67239;51.680;5.976;2023-05-01T09:32:15;67.14;47.36;78.26;;
66888;Laerm;67239;51.680;5.976;2023-05-01T09:34:43;67.17;47.12;78.42;;
66888;Laerm;67239;51.680;5.976;2023-05-01T09:37:31;67.45;45.58;79.71;;
66888;Laerm;67239;51.680;5.976;2023-05-01T09:40:07;65.00;45.19;81.78;;
66888;Laerm;67239;51.680;5.976;2023-05-01T09:45:12;68.73;46.93;79.37;;
66888;Laerm;67239;51.680;5.976;2023-05-01T09:47:46;68.25;46.76;81.74;;
66888;Laerm;67239;51.680;5.976;2023-05-01T09:50:32;67.04;47.84;81.15;;
66888;Laerm;67239;51.680;5.976;2023-05-01T09:53:02;67.14;46.64;78.20;;
66888;Laerm;67239;51.680;5.976;2023-05-01T09:55:32;65.27;44.96;79.06;;
66888;Laerm;67239;51.680;5.976;2023-05-01T09:57:59;69.80;48.11;81.62;;
66888;Laerm;67239;51.680;5.976;2023-05-01T10:00:26;68.27;46.95;80.22;;
66888;Laerm;67239;51.680;5.976;2023-05-01T10:02:53;67.78;46.26;79.42;;
66888;Laerm;67239;51.680;5.976;2023-05-01T10:05:21;68.27;45.18;82.69;;
66888;Laerm;67239;51.680;5.976;2023-05-01T10:07:58;67.13;45.71;82.15;;
66888;Laerm;67239;51.680;5.976;2023-05-01T10:10:26;67.80;46.92;79.56;;
66888;Laerm;67239;51.680;5.976;2023-05-01T10:12:53;67.82;47.23;81.99;;
66888;Laerm;67239;51.680;5.976;2023-05-01T10:15:21;68.42;47.88;82.02;;
66888;Laerm;67239;51.680;5.976;2023-05-01T10:17:53;68.60;46.99;81.91;;
66888;Laerm;67239;51.680;5.976;2023-05-01T10:20:21;69.36;46.59;81.51;;
66888;Laerm;67239;51.680;5.976;2023-05-01T10:22:48;63.63;44.97;78.30;;
66888;Laerm;67239;51.680;5.976;2023-05-01T10:25:16;68.83;44.46;81.22;;
66888;Laerm;67239;51.680;5.976;2023-05-01T10:27:45;68.69;44.35;83.20;;
66888;Laerm;67239;51.680;5.976;2023-05-01T10:30:13;67.39;45.39;81.19;;
66888;Laerm;67239;51.680;5.976;2023-05-01T10:32:43;66.97;42.07;79.79;;
66888;Laerm;67239;51.680;5.976;2023-05-01T10:35:18;66.94;38.85;80.16;;
66888;Laerm;67239;51.680;5.976;2023-05-01T10:38:00;64.82;40.01;79.31;;
66888;Laerm;67239;51.680;5.976;2023-05-01T10:43:29;68.60;44.18;82.65;;
66888;Laerm;67239;51.680;5.976;2023-05-01T10:53:42;67.31;37.00;81.27;;
66888;Laerm;67239;51.680;5.976;2023-05-01T10:59:01;67.16;41.54;78.61;;
66888;Laerm;67239;51.680;5.976;2023-05-01T11:01:37;63.46;35.50;76.29;;
66888;Laerm;67239;51.680;5.976;2023-05-01T11:09:52;67.78;43.75;80.73;;
66888;Laerm;67239;51.680;5.976;2023-05-01T11:15:31;68.53;45.68;83.74;;
66888;Laerm;67239;51.680;5.976;2023-05-01T11:18:01;67.26;45.23;82.16;;
66888;Laerm;67239;51.680;5.976;2023-05-01T11:23:02;69.57;45.74;82.30;;
66888;Laerm;67239;51.680;5.976;2023-05-01T11:25:30;67.23;45.48;81.53;;
66888;Laerm;67239;51.680;5.976;2023-05-01T11:28:00;69.26;45.94;80.72;;
66888;Laerm;67239;51.680;5.976;2023-05-01T11:30:38;69.98;45.01;84.38;;
66888;Laerm;67239;51.680;5.976;2023-05-01T11:33:06;68.04;47.55;79.05;;
66888;Laerm;67239;51.680;5.976;2023-05-01T11:35:37;68.20;44.02;83.38;;
66888;Laerm;67239;51.680;5.976;2023-05-01T11:38:04;66.63;42.76;83.22;;
66888;Laerm;67239;51.680;5.976;2023-05-01T11:40:33;71.92;50.15;87.54;;
66888;Laerm;67239;51.680;5.976;2023-05-01T11:43:06;66.82;46.48;79.09;;
66888;Laerm;67239;51.680;5.976;2023-05-01T11:45:35;69.67;45.62;80.66;;
66888;Laerm;67239;51.680;5.976;2023-05-01T11:48:03;66.95;46.00;80.38;;
66888;Laerm;67239;51.680;5.976;2023-05-01T11:50:35;68.57;48.70;81.02;;
66888;Laerm;67239;51.680;5.976;2023-05-01T11:53:13;72.08;47.38;92.42;;
66888;Laerm;67239;51.680;5.976;2023-05-01T11:55:44;67.37;42.70;79.78;;
66888;Laerm;67239;51.680;5.976;2023-05-01T11:58:11;69.45;47.39;82.72;;
66888;Laerm;67239;51.680;5.976;2023-05-01T12:00:41;65.87;44.56;81.92;;
66888;Laerm;67239;51.680;5.976;2023-05-01T12:03:12;66.44;45.25;81.46;;
66888;Laerm;67239;51.680;5.976;2023-05-01T12:05:43;66.27;45.37;78.66;;
66888;Laerm;67239;51.680;5.976;2023-05-01T12:08:17;71.04;49.84;78.77;;
66888;Laerm;67239;51.680;5.976;2023-05-01T12:10:54;70.02;48.45;82.37;;
66888;Laerm;67239;51.680;5.976;2023-05-01T12:13:23;67.65;46.46;81.01;;
66888;Laerm;67239;51.680;5.976;2023-05-01T12:15:53;68.21;48.11;79.43;;
66888;Laerm;67239;51.680;5.976;2023-05-01T12:18:21;68.63;41.99;84.94;;
66888;Laerm;67239;51.680;5.976;2023-05-01T12:20:54;69.59;46.02;82.17;;
66888;Laerm;67239;51.680;5.976;2023-05-01T12:23:35;67.33;47.02;77.94;;
66888;Laerm;67239;51.680;5.976;2023-05-01T12:26:19;69.06;47.25;81.84;;
66888;Laerm;67239;51.680;5.976;2023-05-01T12:28:57;67.77;48.75;81.14;;
66888;Laerm;67239;51.680;5.976;2023-05-01T12:31:25;67.34;43.71;79.97;;
66888;Laerm;67239;51.680;5.976;2023-05-01T12:36:28;69.88;48.63;82.19;;
66888;Laerm;67239;51.680;5.976;2023-05-01T12:39:06;68.36;46.68;79.20;;
66888;Laerm;67239;51.680;5.976;2023-05-01T12:41:45;70.14;48.54;83.80;;
66888;Laerm;67239;51.680;5.976;2023-05-01T12:44:22;67.73;47.72;81.91;;
66888;Laerm;67239;51.680;5.976;2023-05-01T12:47:04;65.73;47.00;80.80;;
66888;Laerm;67239;51.680;5.976;2023-05-01T12:49:35;69.93;47.65;82.29;;
66888;Laerm;67239;51.680;5.976;2023-05-01T12:52:07;69.39;51.29;81.24;;
66888;Laerm;67239;51.680;5.976;2023-05-01T12:54:38;68.77;52.73;79.98;;
66888;Laerm;67239;51.680;5.976;2023-05-01T12:57:13;64.56;49.74;78.70;;
66888;Laerm;67239;51.680;5.976;2023-05-01T12:59:45;67.77;49.46;78.24;;
66888;Laerm;67239;51.680;5.976;2023-05-01T13:02:14;68.95;49.41;82.16;;
66888;Laerm;67239;51.680;5.976;2023-05-01T13:04:44;69.69;49.00;85.68;;
66888;Laerm;67239;51.680;5.976;2023-05-01T13:07:17;61.90;47.63;73.61;;
66888;Laerm;67239;51.680;5.976;2023-05-01T13:09:56;66.89;50.00;77.56;;
66888;Laerm;67239;51.680;5.976;2023-05-01T13:12:26;68.17;50.55;79.10;;
66888;Laerm;67239;51.680;5.976;2023-05-01T13:14:54;66.16;51.27;77.53;;
66888;Laerm;67239;51.680;5.976;2023-05-01T13:17:27;66.72;48.99;81.72;;
66888;Laerm;67239;51.680;5.976;2023-05-01T13:19:59;68.60;50.18;85.06;;
66888;Laerm;67239;51.680;5.976;2023-05-01T13:22:37;67.90;48.36;81.81;;
66888;Laerm;67239;51.680;5.976;2023-05-01T13:25:16;68.98;48.93;81.85;;
66888;Laerm;67239;51.680;5.976;2023-05-01T13:27:51;68.40;50.41;82.23;;
66888;Laerm;67239;51.680;5.976;2023-05-01T13:30:30;66.94;48.76;80.36;;
66888;Laerm;67239;51.680;5.976;2023-05-01T13:32:57;68.29;48.79;81.13;;
66888;Laerm;67239;51.680;5.976;2023-05-01T13:35:25;68.16;48.16;78.45;;
66888;Laerm;67239;51.680;5.976;2023-05-01T13:37:53;66.95;49.89;79.41;;
66888;Laerm;67239;51.680;5.976;2023-05-01T13:40:23;65.43;47.42;80.82;;
66888;Laerm;67239;51.680;5.976;2023-05-01T13:42:51;68.32;46.81;79.82;;
66888;Laerm;67239;51.680;5.976;2023-05-01T13:45:19;69.47;48.26;83.08;;
66888;Laerm;67239;51.680;5.976;2023-05-01T13:47:49;68.61;49.83;84.26;;
66888;Laerm;67239;51.680;5.976;2023-05-01T13:50:17;66.88;45.27;79.94;;
66888;Laerm;67239;51.680;5.976;2023-05-01T13:52:45;68.27;48.93;78.69;;
66888;Laerm;67239;51.680;5.976;2023-05-01T13:55:13;68.70;47.77;79.85;;
66888;Laerm;67239;51.680;5.976;2023-05-01T13:57:40;67.67;47.14;79.01;;
66888;Laerm;67239;51.680;5.976;2023-05-01T14:00:14;68.58;48.47;82.77;;
66888;Laerm;67239;51.680;5.976;2023-05-01T14:02:47;68.13;46.06;81.20;;
66888;Laerm;67239;51.680;5.976;2023-05-01T14:05:22;68.39;46.71;79.17;;
66888;Laerm;67239;51.680;5.976;2023-05-01T14:07:54;68.58;48.73;81.02;;
66888;Laerm;67239;51.680;5.976;2023-05-01T14:10:25;66.33;44.27;77.27;;
66888;Laerm;67239;51.680;5.976;2023-05-01T14:12:57;68.50;48.14;80.57;;
66888;Laerm;67239;51.680;5.976;2023-05-01T14:15:25;68.96;49.77;80.08;;
66888;Laerm;67239;51.680;5.976;2023-05-01T14:17:52;69.35;48.75;83.63;;
66888;Laerm;67239;51.680;5.976;2023-05-01T14:20:19;70.38;52.78;83.58;;
66888;Laerm;67239;51.680;5.976;2023-05-01T14:22:47;68.57;47.95;80.32;;
66888;Laerm;67239;51.680;5.976;2023-05-01T14:25:27;66.99;45.51;80.03;;
66888;Laerm;67239;51.680;5.976;2023-05-01T14:27:55;69.81;48.14;86.35;;
66888;Laerm;67239;51.680;5.976;2023-05-01T14:30:34;68.88;48.56;83.81;;
66888;Laerm;67239;51.680;5.976;2023-05-01T14:33:11;67.84;47.00;79.14;;
66888;Laerm;67239;51.680;5.976;2023-05-01T14:35:48;69.77;49.28;81.44;;
66888;Laerm;67239;51.680;5.976;2023-05-01T14:38:17;67.56;47.54;81.67;;
66888;Laerm;67239;51.680;5.976;2023-05-01T14:40:45;67.25;46.71;81.27;;
66888;Laerm;67239;51.680;5.976;2023-05-01T14:43:17;68.77;48.28;80.16;;
66888;Laerm;67239;51.680;5.976;2023-05-01T14:45:45;67.22;44.70;79.84;;